Amherst, OH (44001)

9:40 AM EST on December 03, 2016 (GMT -0500)
Apple Orchard | | Change Station

Elev 679 ft 41.40 °N, 82.25 °W | Updated 23 seconds ago

Overcast
Overcast
37.2 °F
Feels Like 37 °F
N
0.0
Wind Variable Wind from SSE
Gusts 0.0 mph

Today
High -- | Low -- °F
--% Chance of Precip.
Yesterday
High -- | Low -- °F
Precip. -- in
Pressure 30.33 in
Visibility 10.0 miles
Clouds Overcast 2000 ft
Windchill 37 °F
Dew Point 30 °F
Humidity 74%
Rainfall 0.00 in
Snow Depth Not available.
7:38 AM 4:59 PM
Waxing Crescent, 15% visible
METAR KLPR 031353Z AUTO 28005KT 10SM OVC020 02/M02 A3031 RMK AO2 SLP270 T00171022
Pressure 30.33 in
Visibility 10.0 miles
Clouds Overcast 2000 ft
Windchill 37 °F
Dew Point 30 °F
Humidity 74%
Rainfall 0.00 in
Snow Depth Not available.
7:38 AM 4:59 PM
Waxing Crescent, 15% visible
METAR KLPR 031353Z AUTO 28005KT 10SM OVC020 02/M02 A3031 RMK AO2 SLP270 T00171022

10-Day Weather Forecast

Almanac

Astronomy

Dec. 03, 2016 Rise Set
Actual Time
Civil Twilight
Nautical Twilight
Astronomical Twilight
Moon
Length of Visible Light
Length of Day
Tomorrow will be .
, % of the Moon is Illuminated

Today's Extremes

State Highs State Lows

Community

WunderPhotos

Upload Photos

1,955,446 photos uploaded!

WunderBlog® & News

Nearby

Air Quality

  Air Quality AQ Index Pollutant
Not available.

Snow Depth

Station Depth Elevation

Earthquake Activity

City Distance Mag. Time & Date
Minimum magnitude displayed is 2.5.

Coastal Water Temperatures

Place Temperature

Stations

Nearby Weather Stations

Station Location Temp. Windchill Dew Point Humidity Wind Precip. Elev Updated Type
                   

Watches & Warnings

There are currently no watches in effect.